Shirley, United Kingdom
Current Conditions -  °F | °C
As of 1:50 PM on Thursday 29 Jan 2015 (Local Time) from EGBB Reporting Station
Light Snow Light Snow  
Wind Chill: 26°   Ceiling: 1000
Heat Index: 34°   Visibility: 2.5mi
Dew Point: 32°   Wind: 10mph
Humidity: 93%   Direction: 280°W
Pressure: 28.88"   Gusts: NA
Location:  52.41°N, 1.83°W
Report Text: EGBB 291350Z 28009KT 240V300 4000 -SN BKN010 01/00 Q0978
Loading
Personal Weather Stations






























Interactive Weather Map New forecast layout! Learn more

10-Day Weather Forecast

Advertisements
Track Severe Weather on mobile